createdAt,value
2022-09-07T00:02:05.464Z,15.13
2022-09-07T00:04:32.210Z,14.95
2022-09-07T00:06:58.879Z,14.45
2022-09-07T00:09:25.777Z,14.82
2022-09-07T00:11:52.492Z,14.82
2022-09-07T00:14:19.181Z,14.76
2022-09-07T00:16:45.856Z,14.54
2022-09-07T00:19:12.579Z,14.53
2022-09-07T00:21:39.335Z,14.59
2022-09-07T00:24:06.179Z,14.59
2022-09-07T00:26:32.944Z,14.67
2022-09-07T00:29:01.203Z,14.40
2022-09-07T00:31:29.567Z,14.57
2022-09-07T00:33:58.987Z,14.61
2022-09-07T00:36:25.669Z,14.29
2022-09-07T00:38:52.889Z,14.35
2022-09-07T00:41:20.915Z,14.27
2022-09-07T00:44:11.741Z,14.19
2022-09-07T00:46:38.447Z,13.87
2022-09-07T00:49:19.244Z,14.09
2022-09-07T00:51:53.985Z,14.18
2022-09-07T00:54:28.428Z,14.18
2022-09-07T00:56:55.208Z,14.26
2022-09-07T00:59:26.875Z,14.05
2022-09-07T01:01:54.003Z,13.91
2022-09-07T01:04:22.281Z,14.02
2022-09-07T01:06:49.465Z,13.84
2022-09-07T01:09:20.801Z,13.77
2022-09-07T01:11:51.104Z,13.88
2022-09-07T01:14:28.024Z,13.72
2022-09-07T01:17:18.486Z,13.78
2022-09-07T01:19:45.110Z,13.84
2022-09-07T01:22:30.721Z,13.90
2022-09-07T01:25:09.331Z,13.90
2022-09-07T01:28:00.785Z,13.79
2022-09-07T01:30:28.404Z,13.73
2022-09-07T01:33:19.426Z,13.81
2022-09-07T01:36:39.719Z,14.02
2022-09-07T01:39:07.042Z,14.02
2022-09-07T01:41:49.150Z,13.96
2022-09-07T01:44:24.231Z,13.95
2022-09-07T01:47:21.648Z,13.82
2022-09-07T01:50:06.261Z,13.71
2022-09-07T01:52:43.545Z,13.74
2022-09-07T01:55:27.356Z,13.53
2022-09-07T01:58:21.072Z,13.49
2022-09-07T02:00:54.148Z,13.39
2022-09-07T02:03:37.339Z,13.47
2022-09-07T02:06:31.828Z,13.46
2022-09-07T02:09:07.104Z,13.45
2022-09-07T02:11:36.603Z,13.41
2022-09-07T02:14:27.951Z,13.23
2022-09-07T02:17:07.215Z,13.31
2022-09-07T02:19:41.003Z,13.16
2022-09-07T02:22:13.457Z,13.25
2022-09-07T02:24:45.018Z,13.23
2022-09-07T02:27:21.447Z,13.21
2022-09-07T02:29:48.276Z,13.16
2022-09-07T02:32:14.958Z,13.22
2022-09-07T02:34:41.669Z,13.19
2022-09-07T02:37:09.418Z,13.35
2022-09-07T02:39:36.132Z,13.49
2022-09-07T02:42:03.291Z,13.28
2022-09-07T02:44:36.651Z,13.54
2022-09-07T02:47:31.172Z,13.50
2022-09-07T02:50:34.632Z,13.44
2022-09-07T02:53:13.466Z,13.39
2022-09-07T02:55:55.431Z,13.34
2022-09-07T02:58:41.067Z,13.14
2022-09-07T03:01:13.876Z,13.09
2022-09-07T03:03:52.835Z,13.14
2022-09-07T03:06:29.533Z,13.02
2022-09-07T03:09:00.330Z,13.02
2022-09-07T03:11:29.508Z,12.95
2022-09-07T03:14:19.852Z,13.08
2022-09-07T03:16:52.276Z,13.04
2022-09-07T03:19:18.926Z,12.97
2022-09-07T03:21:45.740Z,12.94
2022-09-07T03:24:12.408Z,12.73
2022-09-07T03:26:41.371Z,12.69
2022-09-07T03:29:08.087Z,12.48
2022-09-07T03:31:35.228Z,12.79
2022-09-07T03:34:02.270Z,12.82
2022-09-07T03:36:32.795Z,12.70
2022-09-07T03:38:59.871Z,12.74
2022-09-07T03:41:27.698Z,12.74
2022-09-07T03:43:54.945Z,12.84
2022-09-07T03:46:22.179Z,12.93
2022-09-07T03:48:50.431Z,12.91
2022-09-07T03:51:18.797Z,12.98
2022-09-07T03:53:46.796Z,12.86
2022-09-07T03:56:13.380Z,12.95
2022-09-07T03:58:40.269Z,12.84
2022-09-07T04:01:10.056Z,12.78
2022-09-07T04:03:36.861Z,12.72
2022-09-07T04:06:05.064Z,12.66
2022-09-07T04:08:33.806Z,12.57
2022-09-07T04:11:02.435Z,12.69
2022-09-07T04:13:30.516Z,12.51
2022-09-07T04:15:57.577Z,12.73
2022-09-07T04:18:25.077Z,12.67
2022-09-07T04:20:51.816Z,12.66
2022-09-07T04:23:20.008Z,12.66
2022-09-07T04:25:50.892Z,12.56
2022-09-07T04:28:19.144Z,12.82
2022-09-07T04:30:45.900Z,12.91
2022-09-07T04:33:13.431Z,12.93
2022-09-07T04:35:41.655Z,12.97
2022-09-07T04:38:12.663Z,12.97
2022-09-07T04:40:39.361Z,12.83
2022-09-07T04:43:08.156Z,12.91
2022-09-07T04:45:37.214Z,12.88
2022-09-07T04:48:04.721Z,13.02
2022-09-07T04:50:31.739Z,13.12
2022-09-07T04:52:58.376Z,13.20
2022-09-07T04:55:25.111Z,13.47
2022-09-07T04:57:51.941Z,13.56
2022-09-07T05:00:18.797Z,13.54
2022-09-07T05:02:45.500Z,13.81
2022-09-07T05:05:12.254Z,13.91
2022-09-07T05:07:38.906Z,14.18
2022-09-07T05:10:06.005Z,14.40
2022-09-07T05:12:32.834Z,14.43
2022-09-07T05:14:59.610Z,14.60
2022-09-07T05:17:26.299Z,14.79
2022-09-07T05:19:54.876Z,15.05
2022-09-07T05:22:22.368Z,15.28
2022-09-07T05:24:49.201Z,15.63
2022-09-07T05:27:15.879Z,15.67
2022-09-07T05:32:29.863Z,15.80
2022-09-07T05:34:56.535Z,16.47
2022-09-07T05:37:23.191Z,16.46
2022-09-07T05:39:49.974Z,16.76
2022-09-07T05:42:16.778Z,16.86
2022-09-07T05:44:43.884Z,17.03
2022-09-07T05:47:11.512Z,17.24
2022-09-07T05:49:38.300Z,17.34
2022-09-07T05:52:05.050Z,17.18
2022-09-07T05:54:36.400Z,17.44
2022-09-07T05:57:03.670Z,17.56
2022-09-07T05:59:30.799Z,17.75
2022-09-07T06:01:57.562Z,17.78
2022-09-07T06:04:24.618Z,18.14
2022-09-07T06:07:19.998Z,18.17
2022-09-07T06:12:26.880Z,18.62
2022-09-07T06:14:53.547Z,18.50
2022-09-07T06:17:20.188Z,18.76
2022-09-07T06:19:46.817Z,18.80
2022-09-07T06:22:13.511Z,18.88
2022-09-07T06:24:40.183Z,19.02
2022-09-07T06:27:06.835Z,19.09
2022-09-07T06:29:33.532Z,19.14
2022-09-07T06:34:46.870Z,19.33
2022-09-07T06:37:13.861Z,19.43
2022-09-07T06:39:40.723Z,19.79
2022-09-07T06:42:07.517Z,19.74
2022-09-07T06:44:34.676Z,19.92
2022-09-07T06:49:29.526Z,20.38
2022-09-07T06:51:56.236Z,20.45
2022-09-07T06:57:09.921Z,20.73
2022-09-07T06:59:37.756Z,20.72
2022-09-07T07:02:05.823Z,20.99
2022-09-07T07:04:37.695Z,20.88
2022-09-07T07:07:06.579Z,21.09
2022-09-07T07:09:33.260Z,21.24
2022-09-07T07:11:59.964Z,21.33
2022-09-07T07:14:27.471Z,21.52
2022-09-07T07:16:55.829Z,21.63
2022-09-07T07:19:22.488Z,21.68
2022-09-07T07:22:10.838Z,22.06
2022-09-07T07:24:35.755Z,22.15
2022-09-07T07:27:02.972Z,22.39
2022-09-07T07:29:29.611Z,22.26
2022-09-07T07:31:56.243Z,22.45
2022-09-07T07:34:24.155Z,22.50
2022-09-07T07:36:50.783Z,22.35
2022-09-07T07:42:05.917Z,22.55
2022-09-07T07:44:33.050Z,22.57
2022-09-07T07:46:59.760Z,22.76
2022-09-07T07:49:26.851Z,22.66
2022-09-07T07:54:43.285Z,23.06
2022-09-07T07:57:10.513Z,23.27
2022-09-07T07:59:38.063Z,23.47
2022-09-07T08:02:08.723Z,23.54
2022-09-07T08:04:36.156Z,23.64
2022-09-07T08:07:09.584Z,23.70
2022-09-07T08:09:40.822Z,23.64
2022-09-07T08:12:08.757Z,23.90
2022-09-07T08:14:41.787Z,24.06
2022-09-07T08:17:14.205Z,24.20
2022-09-07T08:19:41.026Z,24.19
2022-09-07T08:22:09.154Z,24.58
2022-09-07T08:24:35.791Z,24.49
2022-09-07T08:27:02.508Z,24.52
2022-09-07T08:29:33.576Z,24.12
2022-09-07T08:32:01.886Z,24.90
2022-09-07T08:34:29.592Z,24.64
2022-09-07T08:36:56.243Z,24.94
2022-09-07T08:39:22.814Z,25.07
2022-09-07T08:42:13.129Z,25.33
2022-09-07T08:44:52.892Z,25.06
2022-09-07T08:47:35.324Z,25.31
2022-09-07T08:50:17.032Z,25.73
2022-09-07T08:53:08.646Z,25.80
2022-09-07T08:55:40.704Z,25.96
2022-09-07T08:58:45.384Z,25.92
2022-09-07T09:04:16.969Z,26.07
2022-09-07T09:06:52.562Z,26.19
2022-09-07T09:09:45.386Z,26.10
2022-09-07T09:12:26.784Z,26.34
2022-09-07T09:15:15.593Z,26.40
2022-09-07T09:17:53.438Z,26.36
2022-09-07T09:20:41.632Z,26.43
2022-09-07T09:23:16.966Z,26.51
2022-09-07T09:26:00.006Z,26.56
2022-09-07T09:28:28.996Z,26.53
2022-09-07T09:30:58.531Z,26.63
2022-09-07T09:33:28.817Z,26.65
2022-09-07T09:36:00.896Z,26.84
2022-09-07T09:38:39.531Z,27.18
2022-09-07T09:41:08.839Z,27.14
2022-09-07T09:43:45.806Z,27.16
2022-09-07T09:46:31.478Z,27.16
2022-09-07T09:49:03.346Z,27.27
2022-09-07T09:54:27.160Z,27.57
2022-09-07T09:56:53.832Z,27.37
2022-09-07T10:05:37.761Z,27.55
2022-09-07T10:08:16.145Z,27.75
2022-09-07T10:11:00.760Z,27.67
2022-09-07T10:13:51.748Z,27.51
2022-09-07T10:16:18.760Z,27.67
2022-09-07T10:18:58.739Z,27.74
2022-09-07T10:21:28.571Z,27.95
2022-09-07T10:24:15.436Z,28.20
2022-09-07T10:26:48.390Z,28.34
2022-09-07T10:29:17.071Z,28.32
2022-09-07T10:31:48.315Z,28.07
2022-09-07T10:34:47.699Z,28.02
2022-09-07T10:37:42.254Z,28.11
2022-09-07T10:40:31.785Z,28.42
2022-09-07T10:43:25.523Z,28.33
2022-09-07T10:49:38.237Z,28.03
2022-09-07T10:52:34.551Z,28.36
2022-09-07T10:55:26.504Z,28.57
2022-09-07T10:58:14.265Z,28.56
2022-09-07T11:01:36.613Z,28.69
2022-09-07T11:04:28.942Z,28.90
2022-09-07T11:07:18.444Z,28.90
2022-09-07T11:09:55.557Z,28.71
2022-09-07T11:12:29.509Z,28.83
2022-09-07T11:15:04.933Z,28.83
2022-09-07T11:17:55.493Z,28.63
2022-09-07T11:20:34.193Z,28.18
2022-09-07T11:23:15.507Z,28.40
2022-09-07T11:25:54.265Z,28.60
2022-09-07T11:28:33.076Z,28.85
2022-09-07T11:31:04.287Z,28.97
2022-09-07T11:34:23.800Z,28.93
2022-09-07T11:36:36.097Z,29.15
2022-09-07T11:39:09.996Z,29.36
2022-09-07T11:41:46.997Z,29.33
2022-09-07T11:44:31.641Z,29.20
2022-09-07T11:47:07.356Z,29.22
2022-09-07T11:49:34.024Z,29.11
2022-09-07T11:52:08.929Z,29.23
2022-09-07T11:54:51.908Z,29.32
2022-09-07T11:57:32.750Z,28.96
2022-09-07T12:00:20.123Z,29.23
2022-09-07T12:03:22.610Z,29.10
2022-09-07T12:06:05.358Z,28.82
2022-09-07T12:09:05.745Z,29.17
2022-09-07T12:12:07.172Z,29.32
2022-09-07T12:14:55.201Z,29.28
2022-09-07T12:17:28.987Z,29.24
2022-09-07T12:20:12.007Z,29.38
2022-09-07T12:22:55.538Z,29.23
2022-09-07T12:25:22.376Z,29.24
2022-09-07T12:27:49.400Z,29.09
2022-09-07T12:30:15.938Z,29.30
2022-09-07T12:32:55.002Z,29.23
2022-09-07T12:35:28.760Z,29.45
2022-09-07T12:38:00.379Z,29.46
2022-09-07T12:40:29.791Z,29.37
2022-09-07T12:43:14.664Z,29.50
2022-09-07T12:45:41.987Z,29.56
2022-09-07T12:48:17.678Z,29.13
2022-09-07T12:51:08.362Z,29.17
2022-09-07T12:54:09.734Z,29.32
2022-09-07T12:56:42.699Z,29.40
2022-09-07T12:59:34.639Z,29.39
2022-09-07T13:02:10.436Z,29.45
2022-09-07T13:05:01.864Z,29.47
2022-09-07T13:07:34.364Z,29.40
2022-09-07T13:10:43.078Z,29.38
2022-09-07T13:13:15.764Z,29.53
2022-09-07T13:15:50.059Z,29.57
2022-09-07T13:18:37.428Z,29.39
2022-09-07T13:21:07.093Z,29.48
2022-09-07T13:23:45.576Z,29.44
2022-09-07T13:26:33.411Z,29.32
2022-09-07T13:29:04.527Z,29.35
2022-09-07T13:31:48.263Z,28.95
2022-09-07T13:34:33.661Z,29.02
2022-09-07T13:37:02.008Z,28.98
2022-09-07T13:39:32.570Z,28.61
2022-09-07T13:42:00.669Z,28.82
2022-09-07T13:44:33.072Z,28.78
2022-09-07T13:47:18.170Z,29.07
2022-09-07T13:49:57.924Z,29.02
2022-09-07T13:52:50.607Z,29.14
2022-09-07T13:55:33.126Z,29.14
2022-09-07T13:58:13.311Z,28.89
2022-09-07T14:00:58.963Z,28.93
2022-09-07T14:03:29.641Z,28.81
2022-09-07T14:06:21.303Z,28.96
2022-09-07T14:08:50.396Z,28.88
2022-09-07T14:11:38.461Z,28.91
2022-09-07T14:14:13.789Z,28.77
2022-09-07T14:16:42.721Z,28.87
2022-09-07T14:19:11.578Z,28.61
2022-09-07T14:21:38.915Z,28.65
2022-09-07T14:24:19.471Z,28.57
2022-09-07T14:26:48.383Z,28.55
2022-09-07T14:29:32.706Z,28.50
2022-09-07T14:32:01.623Z,28.50
2022-09-07T14:34:33.940Z,28.36
2022-09-07T14:37:04.961Z,28.61
2022-09-07T14:39:37.494Z,28.39
2022-09-07T14:42:04.654Z,28.49
2022-09-07T14:44:32.668Z,28.43
2022-09-07T14:47:03.474Z,28.46
2022-09-07T14:49:30.353Z,28.28
2022-09-07T14:51:57.263Z,28.14
2022-09-07T14:54:28.852Z,27.93
2022-09-07T14:57:30.701Z,27.92
2022-09-07T14:59:58.989Z,28.05
2022-09-07T15:02:33.571Z,27.92
2022-09-07T15:05:25.771Z,28.07
2022-09-07T15:07:55.272Z,27.94
2022-09-07T15:10:22.481Z,28.07
2022-09-07T15:12:52.288Z,27.87
2022-09-07T15:15:21.410Z,27.90
2022-09-07T15:17:48.363Z,27.72
2022-09-07T15:20:47.531Z,27.83
2022-09-07T15:23:15.167Z,27.79
2022-09-07T15:25:46.493Z,27.66
2022-09-07T15:34:10.090Z,27.56
2022-09-07T15:36:40.350Z,27.56
2022-09-07T15:39:07.494Z,27.60
2022-09-07T15:41:34.864Z,27.59
2022-09-07T15:44:02.767Z,27.53
2022-09-07T15:46:29.423Z,27.35
2022-09-07T15:48:56.371Z,27.30
2022-09-07T15:54:13.054Z,27.25
2022-09-07T15:56:40.718Z,27.09
2022-09-07T15:59:07.593Z,27.04
2022-09-07T16:04:23.789Z,26.82
2022-09-07T16:06:50.867Z,26.52
2022-09-07T16:09:21.204Z,26.58
2022-09-07T16:11:50.143Z,26.39
2022-09-07T16:14:17.830Z,26.23
2022-09-07T16:19:35.075Z,25.89
2022-09-07T16:22:03.337Z,25.83
2022-09-07T16:24:30.075Z,25.52
2022-09-07T16:26:56.762Z,25.45
2022-09-07T16:29:23.364Z,25.34
2022-09-07T16:34:36.635Z,25.05
2022-09-07T16:37:03.656Z,24.90
2022-09-07T16:39:30.578Z,24.60
2022-09-07T16:41:57.458Z,24.39
2022-09-07T16:44:24.159Z,24.42
2022-09-07T16:46:50.978Z,24.32
2022-09-07T16:49:17.903Z,24.09
2022-09-07T16:51:45.788Z,24.04
2022-09-07T16:54:13.963Z,23.96
2022-09-07T16:56:40.767Z,23.81
2022-09-07T16:59:09.508Z,23.57
2022-09-07T17:01:40.145Z,23.40
2022-09-07T17:04:10.976Z,23.29
2022-09-07T17:06:39.581Z,23.11
2022-09-07T17:09:07.137Z,22.93
2022-09-07T17:11:35.639Z,22.77
2022-09-07T17:14:02.469Z,22.57
2022-09-07T17:16:32.063Z,22.48
2022-09-07T17:21:51.799Z,22.09
2022-09-07T17:24:19.723Z,22.14
2022-09-07T17:26:46.686Z,21.99
2022-09-07T17:29:13.483Z,22.03
2022-09-07T17:34:26.840Z,21.60
2022-09-07T17:36:53.610Z,21.18
2022-09-07T17:39:20.353Z,21.29
2022-09-07T17:41:52.707Z,21.38
2022-09-07T17:44:19.974Z,21.15
2022-09-07T17:46:46.550Z,21.05
2022-09-07T17:49:16.377Z,21.13
2022-09-07T17:51:43.756Z,21.00
2022-09-07T17:54:14.307Z,20.83
2022-09-07T17:56:41.906Z,20.84
2022-09-07T18:01:56.399Z,20.34
2022-09-07T18:04:23.633Z,20.24
2022-09-07T18:06:50.708Z,20.19
2022-09-07T18:09:17.460Z,20.15
2022-09-07T18:11:45.822Z,19.90
2022-09-07T18:14:14.596Z,19.97
2022-09-07T18:16:42.059Z,20.13
2022-09-07T18:19:08.824Z,19.98
2022-09-07T18:21:37.352Z,20.07
2022-09-07T18:24:08.077Z,19.96
2022-09-07T18:26:38.415Z,19.78
2022-09-07T18:29:13.242Z,19.83
2022-09-07T18:31:53.937Z,19.77
2022-09-07T18:34:20.827Z,19.63
2022-09-07T18:36:47.552Z,19.66
2022-09-07T18:39:14.345Z,19.40
2022-09-07T18:41:42.147Z,19.60
2022-09-07T18:45:27.142Z,19.33
2022-09-07T18:46:55.593Z,19.49
2022-09-07T18:49:22.209Z,19.49
2022-09-07T18:54:35.474Z,19.32
2022-09-07T18:57:03.218Z,19.25
2022-09-07T18:59:29.974Z,19.30
2022-09-07T19:02:03.016Z,19.36
2022-09-07T19:07:18.635Z,19.39
2022-09-07T19:09:45.393Z,19.24
2022-09-07T19:12:12.146Z,19.49
2022-09-07T19:14:38.839Z,19.42
2022-09-07T19:17:05.636Z,19.40
2022-09-07T19:19:34.368Z,19.27
2022-09-07T19:22:02.422Z,19.46
2022-09-07T19:24:29.068Z,19.59
2022-09-07T19:27:00.058Z,19.73
2022-09-07T19:29:27.393Z,19.82
2022-09-07T19:32:12.035Z,19.74
2022-09-07T19:34:43.662Z,19.75
2022-09-07T19:37:12.635Z,19.67
2022-09-07T19:39:39.750Z,19.45
2022-09-07T19:42:07.117Z,19.44
2022-09-07T19:44:33.806Z,19.25
2022-09-07T19:47:00.934Z,19.25
2022-09-07T19:49:28.263Z,19.39
2022-09-07T19:51:55.029Z,19.40
2022-09-07T19:54:22.061Z,19.34
2022-09-07T19:56:48.793Z,19.45
2022-09-07T19:59:15.586Z,19.15
2022-09-07T20:01:46.339Z,19.31
2022-09-07T20:04:20.266Z,19.54
2022-09-07T20:06:50.281Z,19.49
2022-09-07T20:09:17.381Z,19.50
2022-09-07T20:11:46.775Z,19.39
2022-09-07T20:14:14.632Z,19.17
2022-09-07T20:16:41.794Z,19.39
2022-09-07T20:19:08.748Z,19.25
2022-09-07T20:21:36.888Z,19.17
2022-09-07T20:24:04.121Z,19.26
2022-09-07T20:26:32.530Z,19.28
2022-09-07T20:29:23.454Z,19.19
2022-09-07T20:31:48.217Z,19.22
2022-09-07T20:34:14.918Z,19.40
2022-09-07T20:36:41.806Z,19.23
2022-09-07T20:39:08.670Z,19.29
2022-09-07T20:41:35.318Z,19.26
2022-09-07T20:44:04.135Z,19.50
2022-09-07T20:46:31.577Z,19.26
2022-09-07T20:48:58.589Z,19.43
2022-09-07T20:51:25.361Z,19.49
2022-09-07T20:53:52.039Z,19.53
2022-09-07T20:56:24.120Z,19.70
2022-09-07T20:58:55.622Z,19.56
2022-09-07T21:01:23.183Z,19.46
2022-09-07T21:03:52.956Z,19.44
2022-09-07T21:06:21.700Z,19.01
2022-09-07T21:08:49.344Z,19.13
2022-09-07T21:11:18.857Z,19.40
2022-09-07T21:13:46.662Z,19.39
2022-09-07T21:16:16.376Z,19.38
2022-09-07T21:18:44.345Z,19.50
2022-09-07T21:21:20.393Z,19.44
2022-09-07T21:23:48.056Z,19.53
2022-09-07T21:26:15.264Z,19.59
2022-09-07T21:28:41.922Z,19.26
2022-09-07T21:31:13.435Z,19.67
2022-09-07T21:33:40.085Z,19.18
2022-09-07T21:36:09.493Z,19.39
2022-09-07T21:38:37.676Z,19.44
2022-09-07T21:41:13.463Z,19.62
2022-09-07T21:43:40.916Z,19.52
2022-09-07T21:46:16.741Z,19.23
2022-09-07T21:48:46.903Z,19.29
2022-09-07T21:51:14.603Z,19.47
2022-09-07T21:53:42.623Z,19.58
2022-09-07T21:56:14.225Z,19.62
2022-09-07T21:58:41.477Z,19.38
2022-09-07T22:01:14.506Z,19.64
2022-09-07T22:03:41.197Z,19.53
2022-09-07T22:06:08.787Z,19.56
2022-09-07T22:08:37.066Z,19.58
2022-09-07T22:11:06.295Z,19.58
2022-09-07T22:13:33.582Z,19.58
2022-09-07T22:16:00.336Z,19.49
2022-09-07T22:18:27.893Z,19.42
2022-09-07T22:21:16.180Z,19.42
2022-09-07T22:23:45.769Z,19.39
2022-09-07T22:26:13.207Z,19.38
2022-09-07T22:28:40.835Z,19.39
2022-09-07T22:31:14.494Z,19.45
2022-09-07T22:33:42.088Z,19.54
2022-09-07T22:36:30.109Z,19.54
2022-09-07T22:38:58.708Z,19.57
2022-09-07T22:41:28.285Z,19.56
2022-09-07T22:43:55.420Z,19.60
2022-09-07T22:46:25.420Z,19.58
2022-09-07T22:48:57.357Z,18.92
2022-09-07T22:51:25.323Z,19.54
2022-09-07T22:53:52.821Z,19.53
2022-09-07T22:56:22.435Z,19.18
2022-09-07T22:58:50.269Z,19.36
2022-09-07T23:01:17.844Z,19.28
2022-09-07T23:03:45.087Z,19.05
2022-09-07T23:06:23.566Z,19.16
2022-09-07T23:08:51.373Z,18.84
2022-09-07T23:11:18.316Z,18.48
2022-09-07T23:13:45.436Z,19.06
2022-09-07T23:16:12.225Z,18.95
2022-09-07T23:18:42.804Z,19.05
2022-09-07T23:21:10.948Z,19.04
2022-09-07T23:23:38.576Z,19.10
2022-09-07T23:26:07.148Z,18.92
2022-09-07T23:28:34.547Z,18.85
2022-09-07T23:31:01.664Z,19.03
2022-09-07T23:33:28.345Z,18.80
2022-09-07T23:36:00.300Z,18.43
2022-09-07T23:38:27.457Z,18.60
2022-09-07T23:40:55.131Z,18.89
2022-09-07T23:43:22.897Z,18.86
2022-09-07T23:45:49.880Z,18.69
2022-09-07T23:48:16.790Z,18.38
2022-09-07T23:50:44.900Z,18.49
2022-09-07T23:53:12.460Z,18.39
2022-09-07T23:55:39.694Z,18.10
2022-09-07T23:58:06.953Z,18.25
